Time;durP1;ratioP1;P1;durP2;ratioP2;P2;SDS_P1;SDS_P2;PMS_P1;PMS_P2;Temp;Humidity;BMP_temperature;BMP_pressure;BME280_temperature;BME280_humidity;BME280_pressure;Samples;Min_cycle;Max_cycle;Signal;HPM_P1;HPM_P2
2023/09/16 00:00:33;;;;;;;13.80;7.47;;;;;;;;;;4883836;29;20634;-80
2023/09/16 00:03:03;;;;;;;12.25;7.50;;;;;;;;;;4917362;29;20043;-80
2023/09/16 00:05:30;;;;;;;12.57;7.47;;;;;;;;;;4915231;29;20052;-80
2023/09/16 00:07:56;;;;;;;11.27;6.70;;;;;;;;;;4900776;29;20060;-80
2023/09/16 00:10:22;;;;;;;;;;;;;;;;;;4916092;29;20059;-80
2023/09/16 00:12:48;;;;;;;12.75;7.50;;;;;;;;;;4900061;29;20029;-80
2023/09/16 00:15:14;;;;;;;;;;;;;;;;;;4884134;29;20060;-80
2023/09/16 00:17:40;;;;;;;13.02;7.30;;;;;;;;;;4927905;29;20007;-80
2023/09/16 00:20:11;;;;;;;;;;;;;;;;;;4905094;29;20083;-80
2023/09/16 00:22:37;;;;;;;13.90;7.78;;;;;;;;;;4912986;29;19970;-79
2023/09/16 00:25:04;;;;;;;;;;;;;;;;;;4919553;29;20051;-80
2023/09/16 00:27:30;;;;;;;14.82;7.70;;;;;;;;;;4918161;29;19923;-80
2023/09/16 00:29:56;;;;;;;13.45;7.47;;;;;;;;;;4918747;29;20056;-80
2023/09/16 00:32:22;;;;;;;;;;;;;;;;;;4934571;29;20055;-80
2023/09/16 00:34:50;;;;;;;11.93;7.80;;;;;;;;;;4935018;29;20022;-80
2023/09/16 00:37:16;;;;;;;13.25;8.30;;;;;;;;;;4932778;29;20401;-80
2023/09/16 00:39:42;;;;;;;;;;;;;;;;;;4919322;29;20449;-80
2023/09/16 00:42:08;;;;;;;14.23;8.10;;;;;;;;;;4914444;29;19923;-80
2023/09/16 00:44:34;;;;;;;;;;;;;;;;;;4899642;29;20585;-80
2023/09/16 00:47:00;;;;;;;15.90;7.78;;;;;;;;;;4899280;29;19986;-80
2023/09/16 00:49:30;;;;;;;13.82;8.13;;;;;;;;;;4915174;29;20513;-80
2023/09/16 00:51:56;;;;;;;14.25;8.43;;;;;;;;;;4908795;29;20506;-80
2023/09/16 00:54:23;;;;;;;15.13;8.63;;;;;;;;;;4918248;29;20142;-80
2023/09/16 00:56:48;;;;;;;;;;;;;;;;;;4927464;29;20494;-80
2023/09/16 00:59:16;;;;;;;13.30;8.70;;;;;;;;;;4933304;29;19927;-80
2023/09/16 01:01:44;;;;;;;12.73;8.52;;;;;;;;;;4917126;29;20055;-80
2023/09/16 01:04:11;;;;;;;13.18;8.32;;;;;;;;;;4900224;29;20051;-80
2023/09/16 01:06:38;;;;;;;13.10;8.13;;;;;;;;;;4924983;29;20654;-80
2023/09/16 01:09:05;;;;;;;14.70;9.02;;;;;;;;;;4899542;29;20462;-80
2023/09/16 01:11:31;;;;;;;13.45;8.80;;;;;;;;;;4898751;29;20057;-80
2023/09/16 01:13:57;;;;;;;;;;;;;;;;;;4899076;29;20055;-80
2023/09/16 01:16:32;;;;;;;14.02;8.50;;;;;;;;;;4914362;29;19927;-80
2023/09/16 01:19:01;;;;;;;15.18;8.40;;;;;;;;;;4934334;29;20050;-80
2023/09/16 01:21:27;;;;;;;14.85;9.15;;;;;;;;;;4933479;29;20048;-81
2023/09/16 01:23:53;;;;;;;;;;;;;;;;;;4900669;29;20074;-80
2023/09/16 01:26:19;;;;;;;15.85;8.85;;;;;;;;;;4931013;29;20388;-81
2023/09/16 01:28:45;;;;;;;;;;;;;;;;;;4914396;29;20528;-80
2023/09/16 01:31:12;;;;;;;14.00;8.68;;;;;;;;;;4916807;29;19923;-80
2023/09/16 01:33:38;;;;;;;12.68;8.63;;;;;;;;;;4898888;29;20059;-80
2023/09/16 01:36:06;;;;;;;14.50;8.60;;;;;;;;;;4924848;29;20063;-80
2023/09/16 01:38:33;;;;;;;13.57;8.68;;;;;;;;;;4932994;29;20075;-80
2023/09/16 01:41:00;;;;;;;13.57;8.23;;;;;;;;;;4917828;29;20139;-80
2023/09/16 01:43:26;;;;;;;14.27;8.63;;;;;;;;;;4932544;29;20063;-80
2023/09/16 01:45:53;;;;;;;13.18;9.13;;;;;;;;;;4917694;29;20509;-80
2023/09/16 01:48:19;;;;;;;13.75;8.55;;;;;;;;;;4933918;29;20055;-80
2023/09/16 01:50:45;;;;;;;14.00;7.95;;;;;;;;;;4940727;29;20055;-81
2023/09/16 01:53:11;;;;;;;;;;;;;;;;;;4936795;29;20626;-80
2023/09/16 01:55:38;;;;;;;12.18;7.35;;;;;;;;;;4917523;29;19931;-80
2023/09/16 01:58:05;;;;;;;10.35;7.45;;;;;;;;;;4909066;29;20590;-80
2023/09/16 02:00:31;;;;;;;14.55;8.50;;;;;;;;;;4897841;29;20064;-80
2023/09/16 02:02:57;;;;;;;;;;;;;;;;;;4885980;29;20122;-80
2023/09/16 02:05:23;;;;;;;13.77;8.65;;;;;;;;;;4914777;29;20009;-80
2023/09/16 02:07:49;;;;;;;;;;;;;;;;;;4913156;29;20048;-80
2023/09/16 02:10:15;;;;;;;13.18;8.63;;;;;;;;;;4915721;29;20018;-80
2023/09/16 02:12:41;;;;;;;;;;;;;;;;;;4898834;29;20055;-80
2023/09/16 02:15:09;;;;;;;15.40;8.40;;;;;;;;;;4899036;29;19930;-80
2023/09/16 02:17:36;;;;;;;15.32;10.02;;;;;;;;;;4913534;29;20166;-80
2023/09/16 02:20:02;;;;;;;13.02;9.27;;;;;;;;;;4911122;29;20103;-80
2023/09/16 02:22:28;;;;;;;;;;;;;;;;;;4897581;29;20406;-81
2023/09/16 02:24:54;;;;;;;13.02;8.88;;;;;;;;;;4905543;29;19927;-80
2023/09/16 02:27:20;;;;;;;15.88;9.80;;;;;;;;;;4893800;29;20048;-80
2023/09/16 02:29:48;;;;;;;;;;;;;;;;;;4917455;29;20151;-80
2023/09/16 02:32:14;;;;;;;14.05;9.60;;;;;;;;;;4927996;29;19925;-80
2023/09/16 02:34:40;;;;;;;;;;;;;;;;;;4914261;29;20123;-80
2023/09/16 02:37:06;;;;;;;14.05;9.13;;;;;;;;;;4914695;29;19923;-80
2023/09/16 02:39:32;;;;;;;14.80;9.70;;;;;;;;;;4919799;29;20553;-81
2023/09/16 02:41:58;;;;;;;;;;;;;;;;;;4906002;29;20052;-80
2023/09/16 02:44:24;;;;;;;13.60;9.63;;;;;;;;;;4921319;29;20373;-80
2023/09/16 02:46:50;;;;;;;16.67;10.23;;;;;;;;;;4904644;29;20043;-80
2023/09/16 02:49:16;;;;;;;;;;;;;;;;;;4921524;29;20048;-80
2023/09/16 02:51:42;;;;;;;14.60;10.02;;;;;;;;;;4934815;29;19923;-80
2023/09/16 02:54:08;;;;;;;;;;;;;;;;;;4897325;29;20048;-80
2023/09/16 02:56:34;;;;;;;16.50;10.20;;;;;;;;;;4918887;29;19933;-81
2023/09/16 02:59:01;;;;;;;;;;;;;;;;;;4921236;29;20067;-80
2023/09/16 03:01:27;;;;;;;10.43;7.43;;;;;;;;;;4920567;29;19973;-80
2023/09/16 03:03:53;;;;;;;;;;;;;;;;;;4920813;29;20433;-80
2023/09/16 03:06:19;;;;;;;12.45;8.27;;;;;;;;;;4919383;29;20009;-80
2023/09/16 03:08:45;;;;;;;13.45;8.98;;;;;;;;;;4918896;29;21265;-80
2023/09/16 03:11:12;;;;;;;;;;;;;;;;;;4936863;29;20048;-80
2023/09/16 03:13:38;;;;;;;16.80;9.93;;;;;;;;;;4920008;29;19923;-80
2023/09/16 03:16:04;;;;;;;;;;;;;;;;;;4920841;29;20055;-80
2023/09/16 03:18:30;;;;;;;15.75;11.20;;;;;;;;;;4918738;29;20281;-80
2023/09/16 03:20:56;;;;;;;;;;;;;;;;;;4901465;29;20044;-81
2023/09/16 03:23:22;;;;;;;19.30;11.73;;;;;;;;;;4902497;29;19930;-80
2023/09/16 03:25:48;;;;;;;;;;;;;;;;;;4936306;29;20094;-80
2023/09/16 03:28:14;;;;;;;16.58;11.13;;;;;;;;;;4920544;29;19978;-80
2023/09/16 03:30:40;;;;;;;17.50;12.10;;;;;;;;;;4919791;29;20051;-80
2023/09/16 03:33:06;;;;;;;;;;;;;;;;;;4920474;29;20048;-80
2023/09/16 03:35:34;;;;;;;17.30;11.45;;;;;;;;;;4906097;29;20025;-80
2023/09/16 03:38:00;;;;;;;15.90;11.90;;;;;;;;;;4902708;29;20047;-80
2023/09/16 03:40:26;;;;;;;;;;;;;;;;;;4931312;29;20059;-80
2023/09/16 03:42:52;;;;;;;18.15;11.90;;;;;;;;;;4915978;29;19923;-80
2023/09/16 03:45:18;;;;;;;;;;;;;;;;;;4901824;29;20094;-80
2023/09/16 03:47:44;;;;;;;15.95;10.65;;;;;;;;;;4900112;29;19928;-80
2023/09/16 03:50:10;;;;;;;;;;;;;;;;;;4913900;29;20056;-80
2023/09/16 03:52:36;;;;;;;16.17;11.60;;;;;;;;;;4918430;29;19923;-79
2023/09/16 03:55:03;;;;;;;16.05;11.60;;;;;;;;;;4903918;29;20106;-80
2023/09/16 03:57:29;;;;;;;17.13;11.77;;;;;;;;;;4918911;29;20477;-80
2023/09/16 03:59:55;;;;;;;18.85;12.52;;;;;;;;;;4918806;29;20692;-80
2023/09/16 04:02:21;;;;;;;19.33;11.55;;;;;;;;;;4917809;29;20135;-80
2023/09/16 04:04:47;;;;;;;;;;;;;;;;;;4896244;29;20128;-80
2023/09/16 04:07:13;;;;;;;18.48;12.45;;;;;;;;;;4918155;29;19927;-80
2023/09/16 04:09:39;;;;;;;;;;;;;;;;;;4916027;29;20565;-80
2023/09/16 04:12:05;;;;;;;16.50;11.43;;;;;;;;;;4934562;29;19926;-80
2023/09/16 04:14:31;;;;;;;19.08;12.13;;;;;;;;;;4902220;29;20044;-80
2023/09/16 04:16:57;;;;;;;;;;;;;;;;;;4928339;29;20119;-80
2023/09/16 04:19:23;;;;;;;16.90;11.50;;;;;;;;;;4925587;29;20369;-80
2023/09/16 04:21:51;;;;;;;;;;;;;;;;;;4932014;29;20079;-80
2023/09/16 04:24:17;;;;;;;19.33;12.90;;;;;;;;;;4916326;29;19935;-80
2023/09/16 04:26:43;;;;;;;;;;;;;;;;;;4918187;29;20548;-80
2023/09/16 04:29:09;;;;;;;12.68;9.20;;;;;;;;;;4915108;29;19923;-80
2023/09/16 04:31:35;;;;;;;15.02;10.23;;;;;;;;;;4925978;29;20124;-80
2023/09/16 04:34:01;;;;;;;15.02;10.60;;;;;;;;;;4934195;29;20052;-80
2023/09/16 04:36:27;;;;;;;;;;;;;;;;;;4917998;29;20604;-80
2023/09/16 04:38:53;;;;;;;14.55;9.70;;;;;;;;;;4932548;29;20034;-80
2023/09/16 04:41:21;;;;;;;;;;;;;;;;;;4910852;29;20060;-80
2023/09/16 04:43:49;;;;;;;16.00;10.68;;;;;;;;;;4915705;29;20032;-79
2023/09/16 04:46:19;;;;;;;10.25;7.57;;;;;;;;;;4899532;29;20052;-79
2023/09/16 04:48:48;;;;;;;11.15;7.50;;;;;;;;;;4915838;29;20056;-79
2023/09/16 04:51:14;;;;;;;14.52;7.93;;;;;;;;;;4917395;29;20058;-79
2023/09/16 04:53:40;;;;;;;11.88;7.68;;;;;;;;;;4918672;29;20052;-79
2023/09/16 04:56:07;;;;;;;;;;;;;;;;;;4918810;29;20092;-79
2023/09/16 04:58:33;;;;;;;;;;;;;;;;;;4918746;29;19923;-79
2023/09/16 05:01:00;;;;;;;13.93;8.68;;;;;;;;;;4924147;29;19922;-80
2023/09/16 05:03:26;;;;;;;14.45;9.68;;;;;;;;;;4915264;29;20048;-79
2023/09/16 05:05:52;;;;;;;;;;;;;;;;;;4884142;29;20550;-79
2023/09/16 05:08:18;;;;;;;12.45;9.38;;;;;;;;;;4916039;29;20005;-79
2023/09/16 05:10:44;;;;;;;;;;;;;;;;;;4918784;29;20066;-80
2023/09/16 05:13:10;;;;;;;18.63;11.35;;;;;;;;;;4917737;29;19922;-79
2023/09/16 05:15:36;;;;;;;;;;;;;;;;;;4918983;29;20059;-79
2023/09/16 05:18:02;;;;;;;17.70;10.88;;;;;;;;;;4933270;29;19923;-79
2023/09/16 05:20:28;;;;;;;17.67;9.77;;;;;;;;;;4917090;29;20132;-79
2023/09/16 05:22:54;;;;;;;;;;;;;;;;;;4918911;29;20063;-79
2023/09/16 05:25:20;;;;;;;15.60;10.18;;;;;;;;;;4915273;29;19923;-79
2023/09/16 05:27:46;;;;;;;;;;;;;;;;;;4915616;29;20450;-79
2023/09/16 05:30:13;;;;;;;19.75;11.40;;;;;;;;;;4898591;29;19930;-79
2023/09/16 05:32:39;;;;;;;;;;;;;;;;;;4899435;29;20052;-79
2023/09/16 05:35:05;;;;;;;17.77;10.60;;;;;;;;;;4899132;29;19927;-79
2023/09/16 05:37:31;;;;;;;16.65;10.55;;;;;;;;;;4916584;29;20486;-79
2023/09/16 05:39:57;;;;;;;15.48;11.43;;;;;;;;;;4901185;29;20463;-80
2023/09/16 05:42:23;;;;;;;;;;;;;;;;;;4915200;29;20056;-79
2023/09/16 05:44:49;;;;;;;18.08;11.85;;;;;;;;;;4899235;29;19923;-79
2023/09/16 05:47:15;;;;;;;;;;;;;;;;;;4914469;29;20060;-79
2023/09/16 05:49:41;;;;;;;18.20;11.77;;;;;;;;;;4899078;29;20370;-79
2023/09/16 05:52:07;;;;;;;;;;;;;;;;;;4906449;29;20295;-79
2023/09/16 05:54:34;;;;;;;19.80;12.80;;;;;;;;;;4933811;29;19922;-79
2023/09/16 05:57:00;;;;;;;19.30;12.57;;;;;;;;;;4933261;29;20541;-80
2023/09/16 05:59:26;;;;;;;;;;;;;;;;;;4918003;29;20062;-79
2023/09/16 06:01:52;;;;;;;18.70;13.15;;;;;;;;;;4932431;29;19923;-79
2023/09/16 06:04:18;;;;;;;22.33;14.75;;;;;;;;;;4923883;29;20134;-79
2023/09/16 06:06:44;;;;;;;;;;;;;;;;;;4926631;29;20047;-79
2023/09/16 06:09:10;;;;;;;19.98;13.48;;;;;;;;;;4933203;29;19945;-79
2023/09/16 06:11:36;;;;;;;21.98;13.38;;;;;;;;;;4934497;29;20051;-79
2023/09/16 06:14:03;;;;;;;21.27;13.98;;;;;;;;;;4929565;29;20063;-80
2023/09/16 06:16:29;;;;;;;22.92;14.25;;;;;;;;;;4902661;29;20497;-79
2023/09/16 06:18:55;;;;;;;;;;;;;;;;;;4902942;29;20108;-79
2023/09/16 06:21:21;;;;;;;19.92;14.02;;;;;;;;;;4900639;29;20159;-80
2023/09/16 06:23:47;;;;;;;;;;;;;;;;;;4918800;29;20173;-80
2023/09/16 06:26:13;;;;;;;20.30;13.98;;;;;;;;;;4933912;29;19923;-79
2023/09/16 06:28:39;;;;;;;21.35;13.32;;;;;;;;;;4937319;29;20047;-80
2023/09/16 06:31:05;;;;;;;;;;;;;;;;;;4920469;29;20107;-80
2023/09/16 06:33:32;;;;;;;20.90;13.43;;;;;;;;;;4937152;29;19926;-80
2023/09/16 06:35:58;;;;;;;20.00;13.43;;;;;;;;;;4921055;29;20095;-80
2023/09/16 06:38:24;;;;;;;23.30;13.50;;;;;;;;;;4905028;29;20043;-80
2023/09/16 06:40:50;;;;;;;;;;;;;;;;;;4921607;29;20500;-79
2023/09/16 06:43:16;;;;;;;19.10;13.07;;;;;;;;;;4920750;29;19922;-80
2023/09/16 06:45:42;;;;;;;;;;;;;;;;;;4936572;29;20121;-80
2023/09/16 06:48:08;;;;;;;19.35;12.80;;;;;;;;;;4919966;29;20343;-80
2023/09/16 06:50:34;;;;;;;19.98;13.63;;;;;;;;;;4930880;29;20056;-79
2023/09/16 06:53:00;;;;;;;;;;;;;;;;;;4922334;29;20048;-80
2023/09/16 06:55:26;;;;;;;17.92;12.15;;;;;;;;;;4922767;29;20019;-79
2023/09/16 06:57:52;;;;;;;;;;;;;;;;;;4920552;29;20127;-80
2023/09/16 07:00:18;;;;;;;19.38;12.27;;;;;;;;;;4935668;29;19970;-80
2023/09/16 07:02:44;;;;;;;;;;;;;;;;;;4936786;29;20098;-79
2023/09/16 07:05:10;;;;;;;19.33;11.90;;;;;;;;;;4936146;29;19970;-80
2023/09/16 07:07:36;;;;;;;;;;;;;;;;;;4918704;29;20087;-79
2023/09/16 07:10:03;;;;;;;17.55;12.48;;;;;;;;;;4934397;29;20002;-80
2023/09/16 07:12:29;;;;;;;;;;;;;;;;;;4936320;29;20047;-80
2023/09/16 07:14:55;;;;;;;18.60;12.02;;;;;;;;;;4936533;29;19927;-67
2023/09/16 07:17:21;;;;;;;16.23;10.93;;;;;;;;;;4936348;29;20047;-67
2023/09/16 07:19:47;;;;;;;;;;;;;;;;;;4927062;29;20482;-67
2023/09/16 07:22:13;;;;;;;15.93;11.45;;;;;;;;;;4915126;29;19930;-69
2023/09/16 07:24:39;;;;;;;;;;;;;;;;;;4921620;29;20067;-79
2023/09/16 07:27:05;;;;;;;17.05;11.68;;;;;;;;;;4936002;29;20372;-79
2023/09/16 07:29:31;;;;;;;18.45;11.05;;;;;;;;;;4918812;29;20079;-79
2023/09/16 07:31:57;;;;;;;;;;;;;;;;;;4917232;29;20116;-79
2023/09/16 07:34:25;;;;;;;18.50;11.48;;;;;;;;;;4921595;29;20364;-79
2023/09/16 07:36:51;;;;;;;16.20;11.00;;;;;;;;;;4919255;29;20044;-79
2023/09/16 07:39:17;;;;;;;17.27;11.57;;;;;;;;;;4919814;29;20061;-79
2023/09/16 07:41:43;;;;;;;;;;;;;;;;;;4936387;29;20044;-79
2023/09/16 07:44:09;;;;;;;18.63;11.23;;;;;;;;;;4925143;29;19923;-80
2023/09/16 07:46:35;;;;;;;;;;;;;;;;;;4901098;29;20044;-79
2023/09/16 07:49:02;;;;;;;19.63;11.38;;;;;;;;;;4910960;29;19930;-79
2023/09/16 07:51:28;;;;;;;19.13;10.48;;;;;;;;;;4915246;29;20375;-79
2023/09/16 07:53:54;;;;;;;;;;;;;;;;;;4918117;29;20409;-79
2023/09/16 07:56:20;;;;;;;15.52;11.00;;;;;;;;;;4919354;29;19923;-79
2023/09/16 07:58:46;;;;;;;16.85;10.93;;;;;;;;;;4919646;29;20044;-79
2023/09/16 08:01:12;;;;;;;;;;;;;;;;;;4934554;29;20087;-79
2023/09/16 08:03:39;;;;;;;18.45;11.80;;;;;;;;;;4935414;29;19973;-79
2023/09/16 08:06:05;;;;;;;17.10;11.27;;;;;;;;;;4934175;29;20075;-70
2023/09/16 08:08:31;;;;;;;20.05;11.95;;;;;;;;;;4935394;29;20461;-68
2023/09/16 08:10:57;;;;;;;;;;;;;;;;;;4935525;29;20599;-70
2023/09/16 08:13:23;;;;;;;17.23;12.35;;;;;;;;;;4935447;29;19923;-69
2023/09/16 08:15:50;;;;;;;16.83;9.80;;;;;;;;;;4935106;29;20067;-70
2023/09/16 08:18:16;;;;;;;;;;;;;;;;;;4934501;29;20539;-73
2023/09/16 08:20:42;;;;;;;16.77;10.90;;;;;;;;;;4935290;29;19923;-70
2023/09/16 08:23:10;;;;;;;13.65;9.68;;;;;;;;;;4934271;29;20056;-69
2023/09/16 08:25:37;;;;;;;10.57;7.32;;;;;;;;;;4935143;29;20473;-69
2023/09/16 08:28:02;;;;;;;;;;;;;;;;;;4936141;29;20094;-69
2023/09/16 08:30:28;;;;;;;8.80;5.95;;;;;;;;;;4935039;29;20350;-69
2023/09/16 08:32:54;;;;;;;;;;;;;;;;;;4933423;29;20051;-70
2023/09/16 08:35:24;;;;;;;8.23;5.07;;;;;;;;;;4934562;29;19923;-69
2023/09/16 08:37:51;;;;;;;11.57;7.45;;;;;;;;;;4934013;29;20040;-76
2023/09/16 08:40:18;;;;;;;18.20;9.80;;;;;;;;;;4918488;29;20482;-84
2023/09/16 08:42:49;;;;;;;7.40;4.88;;;;;;;;;;4919384;29;20606;-77
2023/09/16 08:45:15;;;;;;;12.80;7.95;;;;;;;;;;4934682;29;20569;-71
2023/09/16 09:30:31;;;;;;;13.43;8.50;;;;;;;;;;5125212;27;1961492;-68
2023/09/16 09:32:58;;;;;;;12.80;8.25;;;;;;;;;;5156083;27;20126;-68
2023/09/16 09:35:31;;;;;;;15.38;8.50;;;;;;;;;;5132747;27;20122;-68
2023/09/16 09:37:57;;;;;;;13.02;8.27;;;;;;;;;;5149597;27;20107;-75
2023/09/16 09:40:24;;;;;;;17.65;9.27;;;;;;;;;;5141674;27;20129;-73
2023/09/16 09:42:51;;;;;;;14.13;8.68;;;;;;;;;;5131725;27;20091;-73
2023/09/16 09:45:18;;;;;;;13.35;8.32;;;;;;;;;;5115622;27;20097;-74
2023/09/16 09:47:44;;;;;;;9.45;5.70;;;;;;;;;;5131443;27;20039;-75
2023/09/16 09:50:14;;;;;;;10.50;5.82;;;;;;;;;;5132097;27;20043;-73
2023/09/16 09:52:52;;;;;;;8.65;5.00;;;;;;;;;;5133578;27;20081;-74
2023/09/16 09:55:18;;;;;;;12.18;6.25;;;;;;;;;;5153164;27;20130;-74
2023/09/16 09:57:48;;;;;;;9.88;5.85;;;;;;;;;;5152425;27;20487;-75
2023/09/16 10:00:17;;;;;;;10.10;5.88;;;;;;;;;;5133794;27;20046;-73
2023/09/16 10:02:44;;;;;;;6.85;4.50;;;;;;;;;;5158791;27;20388;-75
2023/09/16 10:05:19;;;;;;;6.85;4.53;;;;;;;;;;5116847;27;20047;-75
2023/09/16 10:07:46;;;;;;;9.65;6.47;;;;;;;;;;5133199;27;20051;-74
2023/09/16 10:10:13;;;;;;;6.05;3.90;;;;;;;;;;5097923;27;20046;-70
2023/09/16 10:12:39;;;;;;;5.30;3.65;;;;;;;;;;5150769;27;20046;-69
2023/09/16 10:15:07;;;;;;;8.60;3.92;;;;;;;;;;5153578;27;20540;-70
2023/09/16 10:17:33;;;;;;;7.47;4.50;;;;;;;;;;5149670;27;20134;-77
2023/09/16 10:20:02;;;;;;;5.45;3.47;;;;;;;;;;5149922;27;20175;-73
2023/09/16 10:22:29;;;;;;;3.70;2.70;;;;;;;;;;5113281;27;20043;-71
2023/09/16 10:24:55;;;;;;;8.70;4.25;;;;;;;;;;5131152;27;20745;-73
2023/09/16 10:27:26;;;;;;;9.50;6.30;;;;;;;;;;5149864;27;20043;-72
2023/09/16 10:29:54;;;;;;;9.45;6.28;;;;;;;;;;5149347;27;20514;-72
2023/09/16 10:32:20;;;;;;;8.35;5.63;;;;;;;;;;5134599;27;20403;-71
2023/09/16 10:34:47;;;;;;;6.15;3.67;;;;;;;;;;5170265;27;20049;-72
2023/09/16 10:37:16;;;;;;;8.18;4.80;;;;;;;;;;5150075;27;20112;-71
2023/09/16 10:39:43;;;;;;;12.20;6.05;;;;;;;;;;5148492;27;20053;-72
2023/09/16 10:42:10;;;;;;;5.38;2.90;;;;;;;;;;5135635;27;20498;-75
2023/09/16 10:44:36;;;;;;;7.90;4.55;;;;;;;;;;5117828;27;20442;-70
2023/09/16 10:47:04;;;;;;;4.97;3.22;;;;;;;;;;5135707;27;20055;-70
2023/09/16 10:49:30;;;;;;;4.50;2.63;;;;;;;;;;5132311;27;20074;-78
2023/09/16 10:51:58;;;;;;;8.52;4.70;;;;;;;;;;5128968;27;20134;-78
2023/09/16 10:54:30;;;;;;;9.10;4.60;;;;;;;;;;5117604;27;20118;-78
2023/09/16 10:56:58;;;;;;;4.63;2.80;;;;;;;;;;5117034;27;20103;-78
2023/09/16 10:59:27;;;;;;;5.43;3.72;;;;;;;;;;5100709;27;20081;-78
2023/09/16 11:01:58;;;;;;;4.07;2.53;;;;;;;;;;5100139;27;20459;-74
2023/09/16 11:04:24;;;;;;;3.70;2.70;;;;;;;;;;5135494;27;20051;-79
2023/09/16 11:06:51;;;;;;;4.15;2.88;;;;;;;;;;5118467;27;20426;-80
2023/09/16 11:09:26;;;;;;;5.38;3.50;;;;;;;;;;5135852;27;20031;-78
2023/09/16 11:11:53;;;;;;;4.93;3.10;;;;;;;;;;5116686;27;20142;-79
2023/09/16 11:14:20;;;;;;;8.07;4.07;;;;;;;;;;5083414;27;20289;-78
2023/09/16 11:16:50;;;;;;;4.47;2.88;;;;;;;;;;5116364;27;20058;-79
2023/09/16 11:19:20;;;;;;;4.60;3.47;;;;;;;;;;5117192;27;20047;-77
2023/09/16 11:21:47;;;;;;;5.25;2.95;;;;;;;;;;5115072;27;20042;-77
2023/09/16 11:24:13;;;;;;;4.05;2.63;;;;;;;;;;5100183;27;20047;-77
2023/09/16 11:26:39;;;;;;;6.10;3.60;;;;;;;;;;5143021;27;20438;-78
2023/09/16 11:29:22;;;;;;;6.45;4.05;;;;;;;;;;5141846;27;20058;-77
2023/09/16 11:31:48;;;;;;;6.47;3.85;;;;;;;;;;5136425;27;20082;-71
2023/09/16 11:34:23;;;;;;;9.32;5.00;;;;;;;;;;5120032;27;20425;-71
2023/09/16 11:36:50;;;;;;;6.75;3.03;;;;;;;;;;5140175;27;20050;-70
2023/09/16 11:39:18;;;;;;;8.25;5.68;;;;;;;;;;5138294;27;20041;-76
2023/09/16 11:41:45;;;;;;;4.47;2.20;;;;;;;;;;5104095;27;20050;-74
2023/09/16 11:44:12;;;;;;;2.75;2.33;;;;;;;;;;5137775;27;20065;-74
2023/09/16 11:46:39;;;;;;;4.43;2.65;;;;;;;;;;5155695;27;20051;-74
2023/09/16 11:49:06;;;;;;;6.57;3.38;;;;;;;;;;5137047;27;20433;-74
2023/09/16 11:51:33;;;;;;;8.55;5.00;;;;;;;;;;5133391;27;20043;-75
2023/09/16 11:54:00;;;;;;;7.60;4.20;;;;;;;;;;5152557;27;20043;-76
2023/09/16 11:56:29;;;;;;;10.00;5.25;;;;;;;;;;5126105;27;20126;-78
2023/09/16 11:58:55;;;;;;;7.90;4.13;;;;;;;;;;5116231;27;20092;-78
2023/09/16 12:01:22;;;;;;;4.70;2.80;;;;;;;;;;5116467;27;20088;-77
2023/09/16 12:03:49;;;;;;;8.60;3.72;;;;;;;;;;5116514;27;20042;-81
2023/09/16 12:06:17;;;;;;;8.68;3.45;;;;;;;;;;5130418;27;20511;-78
2023/09/16 12:08:44;;;;;;;4.60;2.92;;;;;;;;;;5133869;27;20064;-76
2023/09/16 12:11:10;;;;;;;5.82;3.15;;;;;;;;;;5098513;27;20625;-77
2023/09/16 12:13:36;;;;;;;7.82;3.72;;;;;;;;;;5120590;27;20039;-77
2023/09/16 12:16:02;;;;;;;5.93;3.72;;;;;;;;;;5135900;27;20437;-77
2023/09/16 12:18:29;;;;;;;4.78;3.40;;;;;;;;;;5119473;27;20043;-77
2023/09/16 12:20:55;;;;;;;1.77;1.50;;;;;;;;;;5118853;27;20035;-76
2023/09/16 12:23:23;;;;;;;6.13;3.25;;;;;;;;;;5118116;27;20126;-76
2023/09/16 12:25:49;;;;;;;9.20;4.68;;;;;;;;;;5119426;27;20098;-81
2023/09/16 12:28:23;;;;;;;5.20;2.00;;;;;;;;;;5106097;27;20097;-82
2023/09/16 12:30:51;;;;;;;5.93;3.35;;;;;;;;;;5098600;27;20062;-82
2023/09/16 12:33:20;;;;;;;7.85;2.63;;;;;;;;;;5097712;27;20047;-83
2023/09/16 12:35:46;;;;;;;3.97;2.00;;;;;;;;;;5136487;27;20129;-83
2023/09/16 12:38:15;;;;;;;3.40;2.13;;;;;;;;;;5118066;27;20045;-83
2023/09/16 12:40:41;;;;;;;6.78;2.90;;;;;;;;;;5119479;27;20071;-82
2023/09/16 12:43:08;;;;;;;3.78;2.50;;;;;;;;;;5136298;27;20046;-82
2023/09/16 12:45:35;;;;;;;3.15;2.30;;;;;;;;;;5136748;27;20513;-83
2023/09/16 12:48:01;;;;;;;5.32;2.80;;;;;;;;;;5118773;27;20039;-82
2023/09/16 12:50:27;;;;;;;5.43;2.97;;;;;;;;;;5119461;27;20395;-82
2023/09/16 12:52:54;;;;;;;6.50;3.08;;;;;;;;;;5135634;27;20495;-84
2023/09/16 12:55:24;;;;;;;5.75;2.85;;;;;;;;;;5128591;27;20078;-82
2023/09/16 12:57:51;;;;;;;3.65;2.13;;;;;;;;;;5098920;27;20046;-82
2023/09/16 13:00:21;;;;;;;3.63;2.35;;;;;;;;;;5120685;27;20129;-82
2023/09/16 13:02:48;;;;;;;1.90;1.70;;;;;;;;;;5136174;27;20038;-82
2023/09/16 13:05:18;;;;;;;3.72;2.33;;;;;;;;;;5118690;27;20058;-82
2023/09/16 13:07:45;;;;;;;9.63;2.60;;;;;;;;;;5118138;27;20046;-83
2023/09/16 13:10:12;;;;;;;3.92;2.20;;;;;;;;;;5118487;27;20038;-82
2023/09/16 13:12:39;;;;;;;2.60;1.95;;;;;;;;;;5136173;27;20039;-82
2023/09/16 13:15:11;;;;;;;7.40;2.33;;;;;;;;;;5103347;27;20043;-83
2023/09/16 13:17:38;;;;;;;4.88;2.50;;;;;;;;;;5099015;28;20407;-82
2023/09/16 13:20:05;;;;;;;7.55;3.05;;;;;;;;;;5111372;27;20127;-83
2023/09/16 13:22:31;;;;;;;6.25;2.90;;;;;;;;;;5101267;27;20054;-82
2023/09/16 13:24:57;;;;;;;7.03;2.40;;;;;;;;;;5118954;27;20054;-82
2023/09/16 13:27:24;;;;;;;5.75;2.53;;;;;;;;;;5118904;27;20042;-83
2023/09/16 13:29:59;;;;;;;3.92;1.83;;;;;;;;;;5134974;27;20050;-79
2023/09/16 13:32:25;;;;;;;5.37;2.63;;;;;;;;;;5129923;27;20046;-81
2023/09/16 13:34:53;;;;;;;3.47;2.00;;;;;;;;;;5102813;28;20099;-80
2023/09/16 13:37:19;;;;;;;6.60;2.00;;;;;;;;;;5112828;27;20043;-80
2023/09/16 13:39:47;;;;;;;3.13;1.98;;;;;;;;;;5108050;27;20075;-82
2023/09/16 13:42:13;;;;;;;3.65;2.03;;;;;;;;;;5103992;27;20053;-82
2023/09/16 13:44:44;;;;;;;2.42;1.77;;;;;;;;;;5122808;27;20035;-82
2023/09/16 13:47:10;;;;;;;4.22;2.28;;;;;;;;;;5125543;27;20043;-83
2023/09/16 13:49:36;;;;;;;6.03;2.70;;;;;;;;;;5108417;27;20042;-81
2023/09/16 13:52:02;;;;;;;3.95;2.13;;;;;;;;;;5119304;28;20039;-86
2023/09/16 13:54:28;;;;;;;5.72;2.00;;;;;;;;;;5120371;27;20039;-82
2023/09/16 13:56:54;;;;;;;4.05;2.05;;;;;;;;;;5117418;27;20399;-82
2023/09/16 13:59:20;;;;;;;7.57;2.50;;;;;;;;;;5115862;27;20082;-82
2023/09/16 14:01:46;;;;;;;3.88;2.38;;;;;;;;;;5117015;27;20046;-82
2023/09/16 14:04:13;;;;;;;3.92;2.75;;;;;;;;;;5131801;27;20491;-81
2023/09/16 14:06:39;;;;;;;2.45;1.70;;;;;;;;;;5099716;27;20590;-81
2023/09/16 14:09:05;;;;;;;4.80;3.10;;;;;;;;;;5132594;27;20444;-85
2023/09/16 14:11:31;;;;;;;2.33;1.85;;;;;;;;;;5118135;27;20057;-80
2023/09/16 14:13:57;;;;;;;5.30;2.55;;;;;;;;;;5119183;27;20039;-81
2023/09/16 14:16:23;;;;;;;3.40;1.92;;;;;;;;;;5102603;27;20102;-81
2023/09/16 14:18:49;;;;;;;4.05;2.50;;;;;;;;;;5102438;27;20031;-81
2023/09/16 14:21:15;;;;;;;4.95;2.40;;;;;;;;;;5124758;27;20515;-80
2023/09/16 14:23:41;;;;;;;4.65;2.65;;;;;;;;;;5120031;27;20069;-81
2023/09/16 14:26:07;;;;;;;4.22;2.33;;;;;;;;;;5138631;27;20145;-85
2023/09/16 14:28:34;;;;;;;4.03;2.25;;;;;;;;;;5115674;27;20453;-81
2023/09/16 14:31:06;;;;;;;4.40;2.38;;;;;;;;;;5129710;27;20050;-81
2023/09/16 14:33:35;;;;;;;3.28;1.85;;;;;;;;;;5117504;27;20126;-80
2023/09/16 14:36:01;;;;;;;4.00;2.30;;;;;;;;;;5117565;27;20047;-85
2023/09/16 14:38:27;;;;;;;2.97;1.70;;;;;;;;;;5100049;27;20039;-84
2023/09/16 14:40:53;;;;;;;3.38;2.25;;;;;;;;;;5114237;27;20084;-84
2023/09/16 14:43:19;;;;;;;5.70;2.47;;;;;;;;;;5115962;27;20443;-69
2023/09/16 14:45:45;;;;;;;4.53;2.20;;;;;;;;;;5144647;27;20043;-80
2023/09/16 14:48:12;;;;;;;3.80;2.20;;;;;;;;;;5122418;27;20121;-80
2023/09/16 14:50:38;;;;;;;5.88;2.47;;;;;;;;;;5102884;27;20468;-80
2023/09/16 14:53:05;;;;;;;7.78;2.33;;;;;;;;;;5124482;27;20502;-79
2023/09/16 14:55:32;;;;;;;5.95;2.60;;;;;;;;;;5116767;27;20054;-80
2023/09/16 14:57:59;;;;;;;4.45;2.40;;;;;;;;;;5098361;27;20043;-80
2023/09/16 15:00:25;;;;;;;4.65;2.20;;;;;;;;;;5137408;27;20043;-79
2023/09/16 15:02:52;;;;;;;3.97;2.35;;;;;;;;;;5099489;27;20047;-79
2023/09/16 15:05:18;;;;;;;6.18;2.38;;;;;;;;;;5109793;27;20477;-79
2023/09/16 15:07:44;;;;;;;5.28;2.47;;;;;;;;;;5116445;27;20449;-80
2023/09/16 15:10:10;;;;;;;4.95;2.03;;;;;;;;;;5116697;27;20050;-79
2023/09/16 15:12:36;;;;;;;6.28;2.33;;;;;;;;;;5118049;27;20126;-79
2023/09/16 15:15:02;;;;;;;6.93;2.42;;;;;;;;;;5115449;27;20046;-79
2023/09/16 15:17:28;;;;;;;5.38;2.60;;;;;;;;;;5097422;27;20441;-79
2023/09/16 15:19:54;;;;;;;4.35;2.40;;;;;;;;;;5127829;27;20415;-80
2023/09/16 15:22:21;;;;;;;5.10;2.55;;;;;;;;;;5097851;27;20054;-79
2023/09/16 15:24:47;;;;;;;5.53;2.35;;;;;;;;;;5116668;27;20054;-79
2023/09/16 15:27:13;;;;;;;4.35;2.28;;;;;;;;;;5123830;27;20043;-81
2023/09/16 15:29:39;;;;;;;3.55;2.30;;;;;;;;;;5120926;27;20067;-80
2023/09/16 15:32:05;;;;;;;5.72;2.85;;;;;;;;;;5092174;27;20484;-80
2023/09/16 15:34:31;;;;;;;3.33;2.25;;;;;;;;;;5101637;27;20123;-77